To NAV CANADA Home Page Login to a new session Search on AWWS site Feedback and Comments Disclaimer Vers la page française équivalente Tips FAQ What's new on the site To the Forecasts and Observations / NOTAM section To "File a Flight Plan" website Publications and other links Update of the User's profile FIC Telephone Numbers My Weather Data Folder Route Weather Data Regional Weather Data Local Weather Data To the Forecasts and Observations / NOTAM section
Request Generated 04/24/2014 at 13:36:07 UTC . Weather information available at that time is displayed.

METAR/TAF

COMOX/BC    

SPECI CYQQ 241321Z 15017KT 20SM -SHRA FEW008 BKN030 BKN120 RMK SF2SC3AC1 -SHRA OCNL=
METAR CYQQ 241300Z 15018G27KT 20SM SCT008 BKN030 08/07 A2950 RMK SF4SC3 OCNL -SHRA SLP989=
SPECI CYQQ 241232Z 15015G21KT 20SM -SHRA SCT009 OVC030 RMK SF3SC5 PCPN VRY LGT=
METAR CYQQ 241200Z 15018KT 15SM -RA FEW010 BKN025 08/07 A2950 RMK SF2SC6 SLP989=
SPECI CYQQ 241131Z 15018G27KT 15SM -RA FEW010 OVC025 RMK SF2SC6=
SPECI CYQQ 241112Z 15016G26KT 6SM RA BR OVC020 RMK SC8=
METAR CYQQ 241100Z 15016G27KT 8SM -RA OVC020 08/07 A2950 RMK SC8 SLP990=

TAF CYQQ 241139Z 2412/2512 14020G30KT P6SM SCT015 OVC040 TEMPO
2412/2418 5SM -SHRA BR OVC015
BECMG 2412/2414 14015G25KT
FM241800 16012KT P6SM BKN040 TEMPO 2418/2502 P6SM -SHRA
FM250200 16008KT P6SM SCT040
BECMG 2510/2512 VRB03KT
RMK NXT FCST BY 241800Z=
Your time UTC time
Weather data provided by Environment Canada and NAV CANADA